Time;durP1;ratioP1;P1;durP2;ratioP2;P2;SDS_P1;SDS_P2;PMS_P1;PMS_P2;Temp;Humidity;BMP_temperature;BMP_pressure;BME280_temperature;BME280_humidity;BME280_pressure;Samples;Min_cycle;Max_cycle;Signal;HPM_P1;HPM_P2
2022/10/02 00:01:18;;;;;;;8.70;1.83;;;11.30;99.90;;;;;;5114570;27;23148;-46
2022/10/02 00:03:45;;;;;;;9.00;2.00;;;11.20;99.90;;;;;;5103724;28;20185;-50
2022/10/02 00:06:16;;;;;;;5.10;1.77;;;11.20;99.90;;;;;;5106540;28;20650;-46
2022/10/02 00:08:44;;;;;;;10.77;2.33;;;11.20;99.90;;;;;;5099701;27;20221;-47
2022/10/02 00:11:18;;;;;;;10.63;2.50;;;11.20;99.90;;;;;;5105755;28;20213;-45
2022/10/02 00:13:48;;;;;;;5.80;1.80;;;11.30;99.90;;;;;;5083027;27;20205;-49
2022/10/02 00:16:27;;;;;;;9.50;2.60;;;11.30;99.90;;;;;;5106366;27;20212;-46
2022/10/02 00:18:55;;;;;;;9.00;1.90;;;11.30;99.90;;;;;;5083021;28;20759;-47
2022/10/02 00:21:54;;;;;;;8.47;2.23;;;11.30;99.90;;;;;;5104355;27;20687;-46
2022/10/02 00:24:26;;;;;;;7.77;1.87;;;11.30;99.90;;;;;;5105880;28;20193;-47
2022/10/02 00:26:58;;;;;;;12.00;2.53;;;11.30;99.90;;;;;;5100496;28;20273;-48
2022/10/02 00:29:39;;;;;;;14.00;2.33;;;11.40;99.90;;;;;;5099947;27;20209;-45
2022/10/02 00:32:16;;;;;;;8.63;2.47;;;11.40;99.90;;;;;;5104262;27;20491;-46
2022/10/02 00:34:56;;;;;;;8.40;2.43;;;11.40;99.90;;;;;;5103348;28;20196;-50
2022/10/02 00:37:33;;;;;;;10.63;1.73;;;11.40;99.90;;;;;;5104758;27;20277;-45
2022/10/02 00:40:11;;;;;;;11.40;2.40;;;11.40;99.90;;;;;;5103222;27;20192;-45
2022/10/02 00:43:02;;;;;;;9.87;2.63;;;11.40;99.90;;;;;;5102840;28;20189;-46
2022/10/02 00:45:57;;;;;;;8.23;1.93;;;11.40;99.90;;;;;;5103805;27;20208;-45
2022/10/02 00:48:44;;;;;;;10.33;1.80;;;11.50;99.90;;;;;;5119385;27;20235;-50
2022/10/02 00:51:21;;;;;;;10.67;2.13;;;11.50;99.90;;;;;;5103990;27;20209;-45
2022/10/02 00:53:56;;;;;;;16.03;2.73;;;11.50;99.90;;;;;;5101308;28;20213;-49
2022/10/02 00:56:31;;;;;;;11.47;2.57;;;11.50;99.90;;;;;;5122484;27;20193;-50
2022/10/02 00:59:10;;;;;;;9.60;2.23;;;11.50;99.90;;;;;;5123546;27;20188;-50
2022/10/02 01:01:43;;;;;;;4.47;1.83;;;11.50;99.90;;;;;;5111714;27;20205;-48
2022/10/02 01:04:13;;;;;;;15.47;2.93;;;11.50;99.90;;;;;;5124188;27;20195;-48
2022/10/02 01:06:40;;;;;;;7.30;2.23;;;11.50;99.90;;;;;;5102401;27;20597;-51
2022/10/02 01:09:06;;;;;;;8.40;2.43;;;11.50;99.90;;;;;;5104217;28;20971;-50
2022/10/02 01:11:36;;;;;;;10.90;2.03;;;11.50;99.90;;;;;;5100657;27;20224;-49
2022/10/02 01:14:03;;;;;;;10.87;2.40;;;11.50;99.90;;;;;;5102510;28;20182;-48
2022/10/02 01:16:31;;;;;;;13.07;2.40;;;11.50;99.90;;;;;;5094895;27;20213;-47
2022/10/02 01:18:59;;;;;;;11.13;2.10;;;11.50;99.90;;;;;;5098683;27;20196;-46
2022/10/02 01:21:34;;;;;;;12.13;1.80;;;11.50;99.90;;;;;;5114545;27;20197;-46
2022/10/02 01:24:09;;;;;;;7.50;1.77;;;11.50;99.90;;;;;;5108213;27;20184;-47
2022/10/02 01:26:37;;;;;;;8.33;2.33;;;11.50;99.90;;;;;;5125366;27;20271;-50
2022/10/02 01:29:04;;;;;;;5.23;1.80;;;11.50;99.90;;;;;;5124227;27;20280;-48
2022/10/02 01:31:34;;;;;;;4.53;1.67;;;11.50;99.90;;;;;;5101459;27;20819;-51
2022/10/02 01:34:01;;;;;;;6.87;1.87;;;11.40;99.90;;;;;;5101606;27;20193;-48
2022/10/02 01:36:30;;;;;;;5.77;1.23;;;11.40;99.90;;;;;;5096546;27;20266;-47
2022/10/02 01:38:58;;;;;;;3.90;1.40;;;11.40;99.90;;;;;;5101238;28;20216;-50
2022/10/02 01:41:25;;;;;;;8.53;1.90;;;11.30;99.90;;;;;;5099137;28;20201;-46
2022/10/02 01:43:57;;;;;;;5.53;1.90;;;11.30;99.90;;;;;;5100421;28;20204;-49
2022/10/02 01:46:31;;;;;;;6.97;2.30;;;11.30;99.90;;;;;;5099335;27;20219;-51
2022/10/02 01:49:11;;;;;;;8.40;1.40;;;11.30;99.90;;;;;;5122471;27;20192;-51
2022/10/02 01:52:06;;;;;;;4.97;1.50;;;11.30;99.90;;;;;;5107851;27;20237;-48
2022/10/02 01:54:45;;;;;;;2.77;1.20;;;11.30;99.90;;;;;;5103398;28;20193;-47
2022/10/02 01:57:20;;;;;;;7.73;1.90;;;11.30;99.90;;;;;;5099810;27;20239;-46
2022/10/02 02:00:02;;;;;;;6.10;1.67;;;11.30;99.90;;;;;;5102248;28;20276;-47
2022/10/02 02:02:49;;;;;;;5.90;1.80;;;11.30;99.90;;;;;;5082159;27;20217;-51
2022/10/02 02:05:25;;;;;;;6.80;2.17;;;11.20;99.90;;;;;;5103811;28;20192;-46
2022/10/02 02:08:00;;;;;;;5.60;2.10;;;11.20;99.90;;;;;;5100906;28;20216;-51
2022/10/02 02:10:38;;;;;;;9.17;2.00;;;11.20;99.90;;;;;;5104979;28;20197;-49
2022/10/02 02:13:12;;;;;;;8.43;2.10;;;11.20;99.90;;;;;;5102142;28;20200;-50
2022/10/02 02:15:45;;;;;;;3.23;2.23;;;11.20;99.90;;;;;;5097778;27;20199;-51
2022/10/02 02:18:20;;;;;;;9.73;2.20;;;11.20;99.90;;;;;;5094650;27;20232;-47
2022/10/02 02:20:51;;;;;;;12.43;2.40;;;11.20;99.90;;;;;;5098383;27;20193;-48
2022/10/02 02:23:23;;;;;;;10.67;2.53;;;11.10;99.90;;;;;;5107662;27;20205;-45
2022/10/02 02:25:54;;;;;;;10.50;2.30;;;11.10;99.90;;;;;;5100938;28;20201;-51
2022/10/02 02:28:22;;;;;;;7.60;2.00;;;11.20;99.90;;;;;;5104692;28;20201;-46
2022/10/02 02:30:55;;;;;;;11.23;2.23;;;11.20;99.90;;;;;;5101073;27;20189;-46
2022/10/02 02:33:25;;;;;;;5.63;1.80;;;11.20;99.90;;;;;;5092405;27;20307;-46
2022/10/02 02:35:56;;;;;;;8.90;2.13;;;11.10;99.90;;;;;;5091851;28;20189;-45
2022/10/02 02:38:28;;;;;;;7.33;2.40;;;11.10;99.90;;;;;;5102127;28;20304;-45
2022/10/02 02:40:57;;;;;;;7.30;2.10;;;11.10;99.90;;;;;;5100618;28;20187;-46
2022/10/02 02:43:29;;;;;;;6.83;1.90;;;11.10;99.90;;;;;;5101939;28;20220;-46
2022/10/02 02:46:01;;;;;;;9.03;2.33;;;11.10;99.90;;;;;;5100455;28;20425;-46
2022/10/02 02:48:32;;;;;;;5.47;2.20;;;11.00;99.90;;;;;;5099259;27;20556;-46
2022/10/02 02:51:02;;;;;;;7.30;1.97;;;11.10;99.90;;;;;;5102112;27;20795;-46
2022/10/02 02:53:35;;;;;;;5.40;1.77;;;11.00;99.90;;;;;;5103028;28;20216;-45
2022/10/02 02:56:05;;;;;;;8.43;1.73;;;11.10;99.90;;;;;;5098716;28;20199;-48
2022/10/02 02:58:37;;;;;;;4.17;1.87;;;11.10;99.90;;;;;;5104098;28;20206;-48
2022/10/02 03:01:06;;;;;;;9.60;1.80;;;11.10;99.90;;;;;;5102016;28;20185;-46
2022/10/02 03:03:33;;;;;;;5.33;2.00;;;11.10;99.90;;;;;;5103023;28;20254;-47
2022/10/02 03:06:06;;;;;;;4.93;1.90;;;11.10;99.90;;;;;;5085680;27;20212;-49
2022/10/02 03:08:36;;;;;;;13.13;1.83;;;11.10;99.90;;;;;;5103740;28;20217;-49
2022/10/02 03:11:08;;;;;;;6.57;2.30;;;11.10;99.90;;;;;;5093892;28;20202;-47
2022/10/02 03:13:55;;;;;;;11.80;2.20;;;11.10;99.90;;;;;;5101837;28;20646;-47
2022/10/02 03:16:37;;;;;;;6.33;1.83;;;11.10;99.90;;;;;;5103957;28;20607;-46
2022/10/02 03:19:20;;;;;;;10.23;2.07;;;11.10;99.90;;;;;;5101584;28;20310;-45
2022/10/02 03:21:56;;;;;;;8.43;2.07;;;11.10;99.90;;;;;;5083402;28;20635;-48
2022/10/02 03:24:30;;;;;;;7.07;1.77;;;11.10;99.90;;;;;;5102668;28;20625;-46
2022/10/02 03:27:04;;;;;;;8.53;1.90;;;11.10;99.90;;;;;;5095522;28;20217;-45
2022/10/02 03:29:38;;;;;;;5.57;2.13;;;11.20;99.90;;;;;;5104050;28;20211;-46
2022/10/02 03:32:08;;;;;;;7.13;1.70;;;11.10;99.90;;;;;;5096003;28;20270;-47
2022/10/02 03:34:37;;;;;;;2.23;1.40;;;11.20;99.90;;;;;;5101896;28;20197;-48
2022/10/02 03:37:04;;;;;;;7.47;1.70;;;11.10;99.90;;;;;;5090510;28;20302;-48
2022/10/02 03:39:31;;;;;;;6.40;1.57;;;11.20;99.90;;;;;;5103553;28;20197;-46
2022/10/02 03:41:58;;;;;;;3.50;1.47;;;11.20;99.90;;;;;;5099781;28;20189;-48
2022/10/02 03:44:25;;;;;;;3.90;1.77;;;11.20;99.90;;;;;;5103071;28;20189;-45
2022/10/02 03:46:52;;;;;;;8.33;1.90;;;11.20;99.90;;;;;;5089894;28;20221;-47
2022/10/02 03:49:20;;;;;;;7.97;2.10;;;11.20;99.90;;;;;;5103602;28;20552;-46
2022/10/02 03:51:47;;;;;;;4.33;1.80;;;11.20;99.90;;;;;;5088173;28;20209;-50
2022/10/02 03:54:17;;;;;;;8.50;2.23;;;11.20;99.90;;;;;;5100523;27;20193;-50
2022/10/02 03:56:52;;;;;;;9.67;1.83;;;11.10;99.90;;;;;;5100499;28;20299;-51
2022/10/02 03:59:33;;;;;;;8.73;2.20;;;11.10;99.90;;;;;;5103861;28;20199;-48
2022/10/02 04:02:05;;;;;;;7.77;2.13;;;11.00;99.90;;;;;;5100290;28;20190;-46
2022/10/02 04:04:44;;;;;;;5.83;1.80;;;11.00;99.90;;;;;;5102175;28;20194;-48
2022/10/02 04:07:17;;;;;;;4.93;1.33;;;11.00;99.90;;;;;;5102603;28;20300;-46
2022/10/02 04:09:50;;;;;;;4.77;1.70;;;11.00;99.90;;;;;;5088208;28;20276;-50
2022/10/02 04:12:23;;;;;;;6.80;1.50;;;11.00;99.90;;;;;;5095559;28;20581;-47
2022/10/02 04:14:53;;;;;;;5.20;1.67;;;10.90;99.90;;;;;;5098467;28;20200;-46
2022/10/02 04:17:24;;;;;;;6.93;1.60;;;10.90;99.90;;;;;;5097789;28;20697;-48
2022/10/02 04:19:57;;;;;;;5.97;2.50;;;10.90;99.90;;;;;;5099585;28;20193;-47
2022/10/02 04:22:33;;;;;;;7.50;1.70;;;10.80;99.90;;;;;;5097767;28;20197;-49
2022/10/02 04:25:06;;;;;;;7.10;2.00;;;10.80;99.90;;;;;;5077423;28;20201;-51
2022/10/02 04:27:38;;;;;;;4.10;1.90;;;10.80;99.90;;;;;;5102454;28;20231;-48
2022/10/02 04:30:09;;;;;;;4.53;1.40;;;10.90;99.90;;;;;;5100887;28;20322;-49
2022/10/02 04:32:37;;;;;;;6.10;1.87;;;10.90;99.90;;;;;;5099636;28;20197;-45
2022/10/02 04:35:13;;;;;;;6.40;1.60;;;10.90;99.90;;;;;;5099390;28;20189;-49
2022/10/02 04:37:55;;;;;;;10.27;1.80;;;10.80;99.90;;;;;;5102547;28;20205;-49
2022/10/02 04:40:37;;;;;;;8.03;1.70;;;10.80;99.90;;;;;;5090663;27;20576;-47
2022/10/02 04:43:17;;;;;;;6.03;1.70;;;10.70;99.90;;;;;;5099816;27;20197;-45
2022/10/02 04:46:09;;;;;;;6.17;1.50;;;10.70;99.90;;;;;;5104276;28;20193;-48
2022/10/02 04:49:03;;;;;;;6.50;1.90;;;10.60;99.90;;;;;;5105563;28;20301;-46
2022/10/02 04:52:01;;;;;;;2.73;1.80;;;10.50;99.90;;;;;;5092151;27;20207;-47
2022/10/02 04:54:40;;;;;;;7.70;1.80;;;10.50;99.90;;;;;;5100364;28;20209;-46
2022/10/02 04:57:24;;;;;;;4.50;2.33;;;10.50;99.90;;;;;;5094359;27;20224;-50
2022/10/02 05:00:02;;;;;;;7.07;2.10;;;10.50;99.90;;;;;;5102617;27;20196;-46
2022/10/02 05:02:49;;;;;;;5.13;1.50;;;10.50;99.90;;;;;;5106626;28;20649;-48
2022/10/02 05:05:33;;;;;;;9.27;1.80;;;10.50;99.90;;;;;;5096413;28;20197;-49
2022/10/02 05:08:26;;;;;;;5.87;1.70;;;10.50;99.90;;;;;;5095612;28;20225;-48
2022/10/02 05:11:12;;;;;;;6.93;2.23;;;10.50;99.90;;;;;;5089327;27;21759;-50
2022/10/02 05:13:57;;;;;;;2.20;1.80;;;10.50;99.90;;;;;;5102388;28;20579;-48
2022/10/02 05:16:39;;;;;;;9.63;2.10;;;10.50;99.90;;;;;;5099188;27;20881;-46
2022/10/02 05:19:36;;;;;;;8.23;1.90;;;10.50;99.90;;;;;;5100421;27;20189;-48
2022/10/02 05:22:30;;;;;;;5.83;2.07;;;10.50;99.90;;;;;;5097789;27;20213;-47
2022/10/02 05:25:16;;;;;;;6.67;2.30;;;10.50;99.90;;;;;;5101001;28;20197;-48
2022/10/02 05:28:09;;;;;;;6.07;1.83;;;10.60;99.90;;;;;;5091755;27;20233;-46
2022/10/02 05:30:45;;;;;;;6.80;1.80;;;10.60;99.90;;;;;;5102590;27;20637;-45
2022/10/02 05:33:31;;;;;;;5.00;1.90;;;10.60;99.90;;;;;;5094569;28;20218;-46
2022/10/02 05:36:26;;;;;;;6.43;2.43;;;10.70;99.90;;;;;;5090535;27;20201;-48
2022/10/02 05:39:05;;;;;;;8.23;2.20;;;10.70;99.90;;;;;;5105349;28;20193;-45
2022/10/02 05:41:45;;;;;;;8.37;2.60;;;10.70;99.90;;;;;;5092491;27;20321;-45
2022/10/02 05:44:17;;;;;;;5.73;2.20;;;10.70;99.90;;;;;;5091823;27;20836;-47
2022/10/02 05:46:49;;;;;;;8.57;3.07;;;10.70;99.90;;;;;;5105383;27;20849;-46
2022/10/02 05:49:18;;;;;;;6.77;2.47;;;10.70;99.90;;;;;;5096068;27;20195;-46
2022/10/02 05:51:54;;;;;;;8.43;2.80;;;10.70;99.90;;;;;;5109024;27;20201;-46
2022/10/02 05:54:36;;;;;;;6.97;2.80;;;10.80;99.90;;;;;;5103439;27;20960;-46
2022/10/02 05:57:12;;;;;;;10.27;2.80;;;10.80;99.90;;;;;;5088168;27;20216;-49
2022/10/02 05:59:44;;;;;;;6.13;2.37;;;10.80;99.90;;;;;;5103113;28;20726;-47
2022/10/02 06:02:21;;;;;;;8.87;2.53;;;10.90;99.90;;;;;;5096142;28;20204;-46
2022/10/02 06:04:57;;;;;;;6.20;2.30;;;10.90;99.90;;;;;;5098509;27;20197;-48
2022/10/02 06:07:26;;;;;;;8.80;2.73;;;10.90;99.90;;;;;;5098909;27;21000;-45
2022/10/02 06:09:59;;;;;;;6.20;2.83;;;11.00;99.90;;;;;;5106233;27;20197;-48
2022/10/02 06:12:34;;;;;;;7.87;3.40;;;11.00;99.90;;;;;;5090435;27;20500;-47
2022/10/02 06:15:05;;;;;;;7.57;2.50;;;11.00;99.90;;;;;;5094269;28;20189;-46
2022/10/02 06:17:39;;;;;;;7.20;3.00;;;11.00;99.90;;;;;;5103092;27;20225;-46
2022/10/02 06:20:16;;;;;;;7.67;3.57;;;11.10;99.90;;;;;;5095930;28;20194;-48
2022/10/02 06:22:46;;;;;;;10.07;3.13;;;11.10;99.90;;;;;;5088159;27;20197;-48
2022/10/02 06:25:19;;;;;;;10.57;2.70;;;11.10;99.90;;;;;;5098911;27;20205;-46
2022/10/02 06:27:53;;;;;;;11.73;3.23;;;11.20;99.90;;;;;;5096681;27;20231;-45
2022/10/02 06:30:21;;;;;;;10.80;2.70;;;11.20;99.90;;;;;;5098638;27;20201;-48
2022/10/02 06:32:54;;;;;;;10.43;2.47;;;11.20;99.90;;;;;;5097872;28;20300;-46
2022/10/02 06:35:38;;;;;;;7.97;2.57;;;11.20;99.90;;;;;;5097200;27;20677;-45
2022/10/02 06:38:23;;;;;;;10.43;3.13;;;11.20;99.90;;;;;;5104336;28;20220;-49
2022/10/02 06:41:00;;;;;;;11.00;2.67;;;11.30;99.90;;;;;;5101464;27;20197;-49
2022/10/02 06:43:43;;;;;;;6.07;2.30;;;11.30;99.90;;;;;;5086425;27;26043;-46
2022/10/02 06:46:22;;;;;;;6.00;2.30;;;11.30;99.90;;;;;;5092667;28;20193;-49
2022/10/02 06:48:56;;;;;;;5.07;2.43;;;11.30;99.90;;;;;;5103511;28;20193;-49
2022/10/02 06:51:30;;;;;;;8.10;2.07;;;11.30;99.90;;;;;;5093974;28;20277;-49
2022/10/02 06:54:18;;;;;;;6.57;2.43;;;11.40;99.90;;;;;;5102013;28;20213;-48
2022/10/02 06:57:00;;;;;;;8.00;2.50;;;11.40;99.90;;;;;;5101693;28;20292;-48
2022/10/02 06:59:42;;;;;;;6.23;1.90;;;11.40;99.90;;;;;;5081853;27;20729;-49
2022/10/02 07:02:23;;;;;;;7.17;2.20;;;11.40;99.90;;;;;;5101745;28;20276;-50
2022/10/02 07:05:01;;;;;;;8.07;2.10;;;11.50;99.90;;;;;;5102071;28;20185;-47
2022/10/02 07:07:43;;;;;;;4.37;2.03;;;11.50;99.90;;;;;;5088255;28;20220;-46
2022/10/02 07:10:20;;;;;;;4.17;2.23;;;11.50;99.90;;;;;;5101594;28;20681;-50
2022/10/02 07:13:02;;;;;;;6.10;2.77;;;11.50;99.90;;;;;;5098664;27;20224;-47
2022/10/02 07:15:56;;;;;;;8.57;2.40;;;11.50;99.90;;;;;;5076311;27;20239;-48
2022/10/02 07:18:38;;;;;;;5.13;1.80;;;11.50;99.90;;;;;;5099424;28;20205;-49
2022/10/02 07:21:12;;;;;;;10.20;2.50;;;11.60;99.90;;;;;;5107575;27;20656;-47
2022/10/02 07:23:48;;;;;;;5.50;2.17;;;11.60;99.90;;;;;;5104838;27;20199;-48
2022/10/02 07:26:28;;;;;;;6.03;1.97;;;11.70;99.90;;;;;;5100580;28;20593;-53
2022/10/02 07:29:05;;;;;;;6.33;1.77;;;11.70;99.90;;;;;;5098476;28;20685;-46
2022/10/02 07:31:44;;;;;;;4.73;2.17;;;11.80;99.90;;;;;;5087008;27;20211;-50
2022/10/02 07:34:27;;;;;;;5.77;1.57;;;11.80;99.90;;;;;;5100161;28;20209;-51
2022/10/02 07:37:02;;;;;;;4.47;2.00;;;11.80;99.90;;;;;;5097772;28;20224;-48
2022/10/02 07:39:39;;;;;;;7.07;2.30;;;11.80;99.90;;;;;;5099259;28;20798;-50
2022/10/02 07:42:31;;;;;;;5.17;1.97;;;11.80;99.90;;;;;;5089974;28;20227;-50
2022/10/02 07:45:27;;;;;;;8.40;2.13;;;11.80;99.90;;;;;;5082956;28;20202;-48
2022/10/02 07:48:30;;;;;;;2.87;1.83;;;11.80;99.90;;;;;;5080648;28;20237;-48
2022/10/02 07:51:45;;;;;;;8.73;2.17;;;11.80;99.90;;;;;;5091931;28;20197;-51
2022/10/02 07:54:01;;;;;;;5.67;1.47;;;11.90;99.90;;;;;;5102151;28;20657;-45
2022/10/02 07:56:30;;;;;;;9.33;2.40;;;11.90;99.90;;;;;;5102229;28;20545;-45
2022/10/02 07:59:03;;;;;;;4.40;1.73;;;11.90;99.90;;;;;;5094746;28;20185;-49
2022/10/02 08:01:35;;;;;;;4.40;1.60;;;12.00;99.90;;;;;;5082039;27;20273;-45
2022/10/02 08:04:06;;;;;;;4.03;1.70;;;12.00;99.90;;;;;;5088793;28;20197;-49
2022/10/02 08:06:36;;;;;;;4.47;1.50;;;12.10;99.90;;;;;;5103131;28;20229;-44
2022/10/02 08:09:07;;;;;;;4.33;1.53;;;12.20;99.90;;;;;;5094091;28;21511;-47
2022/10/02 08:11:39;;;;;;;5.53;2.20;;;12.20;99.90;;;;;;5102872;28;20195;-47
2022/10/02 08:14:10;;;;;;;4.03;1.57;;;12.30;99.90;;;;;;5091853;28;20213;-46
2022/10/02 08:16:41;;;;;;;4.33;1.50;;;12.40;99.90;;;;;;5090623;27;20217;-47
2022/10/02 08:19:14;;;;;;;3.10;1.50;;;12.40;99.90;;;;;;5098407;27;20193;-45
2022/10/02 08:21:47;;;;;;;4.90;1.30;;;12.40;99.90;;;;;;5115785;27;20243;-46
2022/10/02 08:24:18;;;;;;;6.93;2.00;;;12.40;99.90;;;;;;5098576;27;20201;-46
2022/10/02 08:26:49;;;;;;;4.20;1.97;;;12.30;99.90;;;;;;5105991;28;20811;-49
2022/10/02 08:29:22;;;;;;;4.60;1.40;;;12.30;99.90;;;;;;5103762;28;20185;-45
2022/10/02 08:31:52;;;;;;;5.17;1.43;;;12.20;99.90;;;;;;5088101;27;20227;-46
2022/10/02 08:34:20;;;;;;;3.23;1.23;;;12.20;99.90;;;;;;5100057;28;20913;-47
2022/10/02 08:37:12;;;;;;;3.77;1.20;;;12.10;99.90;;;;;;5104982;28;20220;-48
2022/10/02 08:40:01;;;;;;;2.20;1.00;;;12.10;99.90;;;;;;5102153;27;20216;-45
2022/10/02 08:43:16;;;;;;;3.10;1.10;;;12.00;99.90;;;;;;5092758;28;20235;-45
2022/10/02 08:46:11;;;;;;;4.27;1.10;;;12.00;99.90;;;;;;5104805;28;20244;-50
2022/10/02 08:49:24;;;;;;;3.07;1.40;;;12.10;99.90;;;;;;5086523;27;20234;-47
2022/10/02 08:52:28;;;;;;;2.10;1.40;;;12.10;99.90;;;;;;5114360;27;20198;-50
2022/10/02 08:55:49;;;;;;;2.57;1.10;;;12.20;99.90;;;;;;5065872;28;20235;-49
2022/10/02 08:58:52;;;;;;;2.90;1.73;;;12.20;99.90;;;;;;5042236;28;20223;-45
2022/10/02 09:01:41;;;;;;;3.80;1.50;;;12.20;99.90;;;;;;5042448;28;20187;-46
2022/10/02 09:04:40;;;;;;;3.57;1.10;;;12.20;99.90;;;;;;5075522;27;20268;-44
2022/10/02 09:07:46;;;;;;;2.43;1.50;;;12.30;99.90;;;;;;5102484;27;20216;-44
2022/10/02 09:10:49;;;;;;;3.97;1.93;;;12.40;99.90;;;;;;5096597;27;20259;-45
2022/10/02 09:13:43;;;;;;;6.10;2.40;;;12.40;99.90;;;;;;5117769;27;20248;-44
2022/10/02 09:16:12;;;;;;;5.87;2.10;;;12.60;99.90;;;;;;5103672;27;20940;-44
2022/10/02 09:18:55;;;;;;;7.33;2.10;;;12.70;99.90;;;;;;5084450;27;20221;-47
2022/10/02 09:21:49;;;;;;;4.77;1.80;;;12.80;99.90;;;;;;5100591;27;20726;-48
2022/10/02 09:24:58;;;;;;;5.10;1.93;;;13.00;99.90;;;;;;5121847;27;20184;-44
2022/10/02 09:28:05;;;;;;;6.47;2.20;;;13.00;99.90;;;;;;5100441;28;20268;-45
2022/10/02 09:30:57;;;;;;;7.00;1.80;;;13.00;99.90;;;;;;5108314;27;20193;-44
2022/10/02 09:33:46;;;;;;;4.17;1.73;;;13.10;99.90;;;;;;5099121;27;20205;-44
2022/10/02 09:36:53;;;;;;;5.77;2.07;;;13.20;99.90;;;;;;5088051;27;20205;-45
2022/10/02 09:39:57;;;;;;;7.27;2.23;;;13.30;99.90;;;;;;5104875;28;20577;-44
2022/10/02 09:42:55;;;;;;;5.50;2.07;;;13.30;99.90;;;;;;5104511;27;20205;-44
2022/10/02 09:45:58;;;;;;;6.63;2.60;;;13.50;99.90;;;;;;5110153;27;20195;-44
2022/10/02 09:48:58;;;;;;;5.33;2.63;;;13.60;99.90;;;;;;5125673;27;20234;-44
2022/10/02 09:52:02;;;;;;;5.90;2.00;;;13.70;99.90;;;;;;5116265;27;20201;-47
2022/10/02 09:55:10;;;;;;;6.40;2.33;;;13.60;99.90;;;;;;5108722;27;20237;-47
2022/10/02 09:58:13;;;;;;;6.77;1.87;;;13.60;99.90;;;;;;5098674;27;20693;-47
2022/10/02 10:01:06;;;;;;;8.23;1.90;;;13.60;99.90;;;;;;5111326;27;20549;-45
2022/10/02 10:04:16;;;;;;;8.40;1.70;;;13.70;99.90;;;;;;5106774;27;20677;-45
2022/10/02 10:07:17;;;;;;;5.87;1.60;;;13.90;99.90;;;;;;5091585;27;20225;-49
2022/10/02 10:10:17;;;;;;;7.73;1.80;;;13.90;99.90;;;;;;5104374;27;20596;-47
2022/10/02 10:13:19;;;;;;;10.13;2.43;;;14.00;99.90;;;;;;5095321;27;20250;-48
2022/10/02 10:16:27;;;;;;;10.10;2.23;;;14.10;99.90;;;;;;5105282;27;20271;-46
2022/10/02 10:19:31;;;;;;;10.37;1.60;;;14.30;99.90;;;;;;5109199;27;20184;-45
2022/10/02 10:22:41;;;;;;;6.37;1.40;;;14.30;99.90;;;;;;5091393;27;20897;-45
2022/10/02 10:25:42;;;;;;;5.03;1.40;;;14.40;99.90;;;;;;5095699;27;20189;-49
2022/10/02 10:28:48;;;;;;;5.93;1.73;;;14.60;99.90;;;;;;5101576;27;20478;-46
2022/10/02 10:32:01;;;;;;;5.17;1.40;;;14.60;99.90;;;;;;5103975;28;20201;-45
2022/10/02 10:35:16;;;;;;;3.97;1.33;;;14.70;99.90;;;;;;5091679;27;20209;-47
2022/10/02 10:40:55;;;;;;;9.07;1.30;;;14.80;99.90;;;;;;5058513;28;20217;-49
2022/10/02 10:43:57;;;;;;;3.47;1.23;;;14.90;99.90;;;;;;5092218;27;20231;-51
2022/10/02 10:46:44;;;;;;;8.30;1.40;;;14.90;99.90;;;;;;5104586;27;20185;-47
2022/10/02 10:49:34;;;;;;;3.63;1.17;;;15.10;99.90;;;;;;5108026;27;20192;-47
2022/10/02 10:52:12;;;;;;;6.50;1.40;;;15.20;99.90;;;;;;5077400;27;20284;-47
2022/10/02 10:55:07;;;;;;;8.93;1.17;;;15.20;99.90;;;;;;5113859;27;20692;-45
2022/10/02 10:57:50;;;;;;;5.23;1.70;;;15.00;99.90;;;;;;5101021;27;20209;-44
2022/10/02 11:00:20;;;;;;;6.67;1.57;;;14.90;99.90;;;;;;5102638;28;20220;-45
2022/10/02 11:03:14;;;;;;;8.07;1.90;;;14.80;99.90;;;;;;5103414;27;20280;-48
2022/10/02 11:06:21;;;;;;;9.50;1.90;;;14.80;99.90;;;;;;5117567;27;20193;-45
2022/10/02 11:09:22;;;;;;;9.07;1.80;;;14.90;99.90;;;;;;5083171;28;20637;-48
2022/10/02 11:12:27;;;;;;;9.37;2.03;;;14.90;99.90;;;;;;5094562;27;20204;-46
2022/10/02 11:15:08;;;;;;;6.60;1.80;;;14.90;99.90;;;;;;5095327;27;20229;-45
2022/10/02 11:18:00;;;;;;;8.80;1.73;;;14.80;99.90;;;;;;5104633;27;20209;-45
2022/10/02 11:20:41;;;;;;;10.83;2.47;;;14.70;99.90;;;;;;5103409;28;20240;-45
2022/10/02 11:23:25;;;;;;;5.97;1.63;;;14.60;99.90;;;;;;5086087;27;20201;-46
2022/10/02 11:26:07;;;;;;;12.63;1.73;;;14.50;99.90;;;;;;5099023;27;20263;-47
2022/10/02 11:29:12;;;;;;;5.90;1.97;;;14.40;99.90;;;;;;5107482;27;20217;-45
2022/10/02 11:31:58;;;;;;;6.50;2.30;;;14.30;99.90;;;;;;5086266;28;20201;-47
2022/10/02 11:34:52;;;;;;;9.67;2.20;;;14.20;99.90;;;;;;5093444;28;20209;-47
2022/10/02 11:37:41;;;;;;;7.63;2.40;;;14.20;99.90;;;;;;5090518;28;20740;-46
2022/10/02 11:40:39;;;;;;;11.70;2.07;;;14.20;99.90;;;;;;5111807;28;20193;-45
2022/10/02 11:43:36;;;;;;;7.73;2.43;;;14.20;99.90;;;;;;5091121;28;20225;-47
2022/10/02 11:46:20;;;;;;;6.47;1.73;;;14.10;99.90;;;;;;5100147;28;20185;-45
2022/10/02 11:49:07;;;;;;;16.73;1.97;;;14.20;99.90;;;;;;5105490;28;20258;-45
2022/10/02 11:51:55;;;;;;;12.00;2.20;;;14.30;99.90;;;;;;5110201;27;20585;-51
2022/10/02 11:54:49;;;;;;;11.10;1.97;;;14.30;99.90;;;;;;5082248;27;20347;-48
2022/10/02 11:57:34;;;;;;;10.67;2.20;;;14.30;99.90;;;;;;5097429;27;20227;-49
2022/10/02 12:00:14;;;;;;;11.00;2.17;;;14.20;99.90;;;;;;5107091;27;20196;-48
2022/10/02 12:02:55;;;;;;;7.77;1.93;;;14.20;99.90;;;;;;5103228;27;20215;-49
2022/10/02 12:05:37;;;;;;;11.77;2.00;;;14.30;99.90;;;;;;5114109;27;20192;-49
2022/10/02 12:08:13;;;;;;;9.60;1.53;;;14.40;99.90;;;;;;5109758;27;20209;-48
2022/10/02 12:10:49;;;;;;;10.50;1.80;;;14.40;99.90;;;;;;5105977;27;20200;-45
2022/10/02 12:13:51;;;;;;;9.20;2.20;;;14.50;99.90;;;;;;5114881;27;20192;-51
2022/10/02 12:16:27;;;;;;;10.03;2.47;;;14.50;99.90;;;;;;5104442;27;20209;-46
2022/10/02 12:19:10;;;;;;;7.47;2.27;;;14.60;99.90;;;;;;5108292;27;20689;-47
2022/10/02 12:27:44;;;;;;;11.30;2.43;;;14.50;99.90;;;;;;5112927;27;20212;-48
2022/10/02 12:30:14;;;;;;;12.60;2.70;;;14.50;99.90;;;;;;5103120;27;20196;-52
2022/10/02 12:33:06;;;;;;;8.50;1.97;;;14.50;99.90;;;;;;5119819;27;20195;-48
2022/10/02 12:35:54;;;;;;;11.47;2.07;;;14.40;99.90;;;;;;5107461;27;20217;-45
2022/10/02 12:38:33;;;;;;;12.37;2.03;;;14.40;99.90;;;;;;5096028;27;21134;-50
2022/10/02 12:41:08;;;;;;;13.17;2.13;;;14.40;99.90;;;;;;5098454;27;20786;-49
2022/10/02 12:44:04;;;;;;;11.90;2.30;;;14.40;99.90;;;;;;5111818;27;20690;-45
2022/10/02 12:47:04;;;;;;;9.30;2.10;;;14.40;99.90;;;;;;5099164;27;20185;-44
2022/10/02 12:49:44;;;;;;;8.63;1.77;;;14.30;99.90;;;;;;5104600;27;20736;-47
2022/10/02 12:52:46;;;;;;;13.13;2.57;;;14.30;99.90;;;;;;5115943;27;20189;-49
2022/10/02 12:55:42;;;;;;;8.33;2.27;;;14.40;99.90;;;;;;5100904;27;20211;-47
2022/10/02 12:58:16;;;;;;;11.53;2.57;;;14.50;99.90;;;;;;5095444;27;20220;-48
2022/10/02 13:01:06;;;;;;;9.97;2.60;;;14.60;99.90;;;;;;5121619;27;20200;-45
2022/10/02 13:04:04;;;;;;;11.53;1.97;;;14.70;99.90;;;;;;5109274;27;20194;-45
2022/10/02 13:07:04;;;;;;;7.23;2.40;;;14.80;99.90;;;;;;5117151;27;20196;-45
2022/10/02 13:09:44;;;;;;;9.53;2.43;;;15.10;99.90;;;;;;5099382;27;20213;-47
2022/10/02 13:12:25;;;;;;;10.37;1.83;;;15.20;99.90;;;;;;5107599;27;20199;-49
2022/10/02 13:15:18;;;;;;;10.87;1.97;;;15.30;99.90;;;;;;5120150;27;20209;-47
2022/10/02 13:17:51;;;;;;;7.10;1.93;;;15.30;99.90;;;;;;5112393;27;20615;-45
2022/10/02 13:20:36;;;;;;;8.50;2.30;;;15.20;99.90;;;;;;5097569;27;20200;-45
2022/10/02 13:23:12;;;;;;;8.97;2.13;;;15.40;99.90;;;;;;5099494;27;20299;-49
2022/10/02 13:25:57;;;;;;;9.43;2.03;;;16.50;99.90;;;;;;5103916;27;20204;-46
2022/10/02 13:28:42;;;;;;;5.73;1.30;;;16.50;99.90;;;;;;5100314;27;23407;-44
2022/10/02 13:31:18;;;;;;;8.93;1.60;;;16.20;99.90;;;;;;5109827;27;20211;-46
2022/10/02 13:34:05;;;;;;;9.07;1.90;;;16.00;99.90;;;;;;5113360;27;20257;-45
2022/10/02 13:36:44;;;;;;;9.20;2.07;;;15.80;99.90;;;;;;5120790;27;20209;-45
2022/10/02 13:39:29;;;;;;;5.77;1.40;;;16.00;99.90;;;;;;5123878;27;20215;-44
2022/10/02 13:42:03;;;;;;;10.93;1.70;;;;;;;;;;5108674;27;20201;-44
2022/10/02 13:44:35;;;;;;;5.47;1.47;;;;;;;;;;5102130;27;20200;-45
2022/10/02 13:47:21;;;;;;;8.87;2.10;;;;;;;;;;5109836;27;20219;-44
2022/10/02 13:49:58;;;;;;;8.67;1.83;;;;;;;;;;5126445;27;20193;-44
2022/10/02 13:52:32;;;;;;;10.70;2.30;;;;;;;;;;5113991;27;20196;-45
2022/10/02 13:55:09;;;;;;;9.73;2.50;;;;;;;;;;5083727;28;20220;-47
2022/10/02 13:57:50;;;;;;;7.20;1.83;;;;;;;;;;5096661;27;20227;-46
2022/10/02 14:00:24;;;;;;;9.10;2.10;;;;;;;;;;5099019;27;20211;-46
2022/10/02 14:03:04;;;;;;;7.87;1.70;;;17.60;99.90;;;;;;5116207;27;20563;-45
2022/10/02 14:05:41;;;;;;;7.43;1.60;;;17.60;99.90;;;;;;5114822;27;20188;-44
2022/10/02 14:08:19;;;;;;;8.80;1.73;;;;;;;;;;5123589;27;20216;-48
2022/10/02 14:10:53;;;;;;;10.00;1.80;;;;;;;;;;5125921;27;20193;-47